createdAt,value
2019-02-23T00:00:12.514Z,4.53
2019-02-23T00:05:07.719Z,4.51
2019-02-23T00:10:06.019Z,4.64
2019-02-23T00:15:07.079Z,4.66
2019-02-23T00:20:05.881Z,4.69
2019-02-23T00:25:01.821Z,4.68
2019-02-23T00:29:57.740Z,4.67
2019-02-23T00:34:53.683Z,4.70
2019-02-23T00:39:49.643Z,4.71
2019-02-23T00:44:46.471Z,4.72
2019-02-23T00:49:42.369Z,4.81
2019-02-23T00:54:38.266Z,4.80
2019-02-23T00:59:34.210Z,4.87
2019-02-23T01:04:30.106Z,4.92
2019-02-23T01:09:26.020Z,4.96
2019-02-23T01:14:21.920Z,5.09
2019-02-23T01:19:17.908Z,5.07
2019-02-23T01:24:13.814Z,5.08
2019-02-23T01:29:09.712Z,5.05
2019-02-23T01:34:05.819Z,4.99
2019-02-23T01:39:01.920Z,4.92
2019-02-23T01:44:00.403Z,4.67
2019-02-23T01:48:55.629Z,4.63
2019-02-23T01:53:51.531Z,4.55
2019-02-23T01:58:47.457Z,4.53
2019-02-23T02:03:43.357Z,4.40
2019-02-23T02:08:39.656Z,4.28
2019-02-23T02:13:35.658Z,4.24
2019-02-23T02:18:31.556Z,4.11
2019-02-23T02:23:27.449Z,4.09
2019-02-23T02:28:23.342Z,3.96
2019-02-23T02:33:19.242Z,3.86
2019-02-23T02:38:15.345Z,3.71
2019-02-23T02:43:11.243Z,3.67
2019-02-23T02:48:07.147Z,3.52
2019-02-23T02:53:03.019Z,3.48
2019-02-23T02:57:58.953Z,3.47
2019-02-23T03:02:54.827Z,3.29
2019-02-23T03:07:50.734Z,3.33
2019-02-23T03:12:46.697Z,3.21
2019-02-23T03:17:42.591Z,3.18
2019-02-23T03:22:38.588Z,3.10
2019-02-23T03:27:34.591Z,3.09
2019-02-23T03:32:30.486Z,2.93
2019-02-23T03:37:26.404Z,2.91
2019-02-23T03:42:22.296Z,2.79
2019-02-23T03:47:18.196Z,2.68
2019-02-23T03:52:14.093Z,2.59
2019-02-23T03:57:10.047Z,2.53
2019-02-23T04:02:06.131Z,2.48
2019-02-23T04:07:02.122Z,2.51
2019-02-23T04:11:58.016Z,2.48
2019-02-23T04:16:53.912Z,2.44
2019-02-23T04:21:49.811Z,2.29
2019-02-23T04:26:45.818Z,2.14
2019-02-23T04:31:41.699Z,2.16
2019-02-23T04:36:37.596Z,2.28
2019-02-23T04:41:33.489Z,2.05
2019-02-23T04:46:29.388Z,2.12
2019-02-23T04:51:25.487Z,2.13
2019-02-23T04:56:21.417Z,1.99
2019-02-23T05:01:17.317Z,1.90
2019-02-23T05:06:13.294Z,2.09
2019-02-23T05:11:09.188Z,1.99
2019-02-23T05:16:05.082Z,1.93
2019-02-23T05:21:00.979Z,1.95
2019-02-23T05:25:56.900Z,2.13
2019-02-23T05:30:52.798Z,2.14
2019-02-23T05:35:48.843Z,1.91
2019-02-23T05:40:44.761Z,1.94
2019-02-23T05:45:41.265Z,1.92
2019-02-23T05:50:37.125Z,2.04
2019-02-23T05:55:33.029Z,2.04
2019-02-23T06:00:29.014Z,1.96
2019-02-23T06:05:24.915Z,2.11
2019-02-23T06:10:20.811Z,2.10
2019-02-23T06:15:18.835Z,2.07
2019-02-23T06:20:14.836Z,2.09
2019-02-23T06:25:10.750Z,2.12
2019-02-23T06:30:11.378Z,2.09
2019-02-23T06:35:08.653Z,2.06
2019-02-23T06:40:07.294Z,2.07
2019-02-23T06:45:10.102Z,2.15
2019-02-23T06:50:06.591Z,2.15
2019-02-23T06:55:02.686Z,2.13
2019-02-23T06:59:58.577Z,2.23
2019-02-23T07:04:54.472Z,2.39
2019-02-23T07:09:50.371Z,2.56
2019-02-23T07:14:50.531Z,2.81
2019-02-23T07:19:46.563Z,2.86
2019-02-23T07:24:42.562Z,2.86
2019-02-23T07:29:38.574Z,2.91
2019-02-23T07:34:34.466Z,2.95
2019-02-23T07:39:30.374Z,2.97
2019-02-23T07:44:26.269Z,2.83
2019-02-23T07:49:22.194Z,2.80
2019-02-23T07:54:18.087Z,2.87
2019-02-23T07:59:14.070Z,2.88
2019-02-23T08:04:09.970Z,3.18
2019-02-23T08:09:06.863Z,3.29
2019-02-23T08:14:02.807Z,3.45
2019-02-23T08:18:59.218Z,3.41
2019-02-23T08:23:55.198Z,3.70
2019-02-23T08:28:51.540Z,3.91
2019-02-23T08:33:47.487Z,4.04
2019-02-23T08:38:43.787Z,4.03
2019-02-23T08:43:39.866Z,4.21
2019-02-23T08:48:36.804Z,4.35
2019-02-23T08:53:33.862Z,4.57
2019-02-23T08:58:29.859Z,4.52
2019-02-23T09:03:25.753Z,4.66
2019-02-23T09:08:21.637Z,4.79
2019-02-23T09:13:17.547Z,4.97
2019-02-23T09:18:14.912Z,5.28
2019-02-23T09:23:10.868Z,5.45
2019-02-23T09:28:06.790Z,5.73
2019-02-23T09:33:02.818Z,5.86
2019-02-23T09:37:59.621Z,5.82
2019-02-23T09:42:55.531Z,6.30
2019-02-23T09:47:51.472Z,6.43
2019-02-23T09:52:47.472Z,6.56
2019-02-23T09:57:43.450Z,6.59
2019-02-23T10:02:39.389Z,6.70
2019-02-23T10:07:36.358Z,6.75
2019-02-23T10:12:33.326Z,6.88
2019-02-23T10:17:29.362Z,7.02
2019-02-23T10:22:27.299Z,7.28
2019-02-23T10:27:23.417Z,7.46
2019-02-23T10:32:20.556Z,7.43
2019-02-23T10:37:16.559Z,7.75
2019-02-23T10:42:13.869Z,8.05
2019-02-23T10:47:10.037Z,8.20
2019-02-23T10:52:06.114Z,8.38
2019-02-23T10:57:02.087Z,8.59
2019-02-23T11:01:58.051Z,8.68
2019-02-23T11:06:55.165Z,8.61
2019-02-23T11:11:51.165Z,8.62
2019-02-23T11:16:47.074Z,8.72
2019-02-23T11:21:43.010Z,8.70
2019-02-23T11:26:38.947Z,8.86
2019-02-23T11:31:34.838Z,9.12
2019-02-23T11:36:30.732Z,9.28
2019-02-23T11:41:26.658Z,9.05
2019-02-23T11:46:22.560Z,9.29
2019-02-23T11:51:18.462Z,9.60
2019-02-23T11:56:14.368Z,9.73
2019-02-23T12:01:11.422Z,9.86
2019-02-23T12:06:07.373Z,9.75
2019-02-23T12:11:03.318Z,9.91
2019-02-23T12:15:59.222Z,10.04
2019-02-23T12:20:55.170Z,10.32
2019-02-23T12:25:51.164Z,10.57
2019-02-23T12:30:47.055Z,10.39
2019-02-23T12:35:43.005Z,10.72
2019-02-23T12:40:47.519Z,10.65
2019-02-23T12:45:44.379Z,10.70
2019-02-23T12:50:40.355Z,10.82
2019-02-23T12:55:36.388Z,11.07
2019-02-23T13:00:32.328Z,10.97
2019-02-23T13:05:28.463Z,11.28
2019-02-23T13:10:26.746Z,11.19
2019-02-23T13:15:48.898Z,11.27
2019-02-23T13:21:01.063Z,11.26
2019-02-23T13:26:10.157Z,11.22
2019-02-23T13:31:22.129Z,11.60
2019-02-23T13:36:43.193Z,11.63
2019-02-23T13:41:51.741Z,11.67
2019-02-23T13:47:00.694Z,11.67
2019-02-23T13:52:03.424Z,11.83
2019-02-23T13:57:17.717Z,11.91
2019-02-23T14:02:34.211Z,11.93
2019-02-23T14:07:48.793Z,12.02
2019-02-23T14:13:13.048Z,12.06
2019-02-23T14:18:24.623Z,12.04
2019-02-23T14:23:36.286Z,12.17
2019-02-23T14:28:41.998Z,12.49
2019-02-23T14:33:47.753Z,12.08
2019-02-23T14:39:02.316Z,12.16
2019-02-23T14:44:20.509Z,12.28
2019-02-23T14:49:25.991Z,12.39
2019-02-23T14:54:31.499Z,12.33
2019-02-23T14:59:34.030Z,12.15
2019-02-23T15:04:51.647Z,11.92
2019-02-23T15:10:14.204Z,11.80
2019-02-23T15:15:29.725Z,11.89
2019-02-23T15:20:32.153Z,11.68
2019-02-23T15:26:09.553Z,11.50
2019-02-23T15:31:24.404Z,11.28
2019-02-23T15:36:40.992Z,11.46
2019-02-23T15:41:56.281Z,11.29
2019-02-23T15:47:16.871Z,11.01
2019-02-23T15:52:15.884Z,10.72
2019-02-23T15:57:11.851Z,10.50
2019-02-23T16:02:08.009Z,10.45
2019-02-23T16:07:04.924Z,10.19
2019-02-23T16:12:01.690Z,9.87
2019-02-23T16:16:59.387Z,9.75
2019-02-23T16:21:57.687Z,9.57
2019-02-23T16:26:53.787Z,9.41
2019-02-23T16:31:50.571Z,9.31
2019-02-23T16:36:48.351Z,9.18
2019-02-23T16:41:45.175Z,9.21
2019-02-23T16:46:41.843Z,9.01
2019-02-23T16:51:38.823Z,9.05
2019-02-23T16:56:34.879Z,8.92
2019-02-23T17:01:31.371Z,8.71
2019-02-23T17:06:27.464Z,8.51
2019-02-23T17:11:24.113Z,8.44
2019-02-23T17:16:20.110Z,8.15
2019-02-23T17:21:16.102Z,8.19
2019-02-23T17:26:12.635Z,8.01
2019-02-23T17:31:10.071Z,7.95
2019-02-23T17:36:07.199Z,7.75
2019-02-23T17:41:05.938Z,7.68
2019-02-23T17:46:05.539Z,7.65
2019-02-23T17:51:01.674Z,7.71
2019-02-23T17:55:57.606Z,7.60
2019-02-23T18:00:54.254Z,7.55
2019-02-23T18:05:52.399Z,7.41
2019-02-23T18:10:49.202Z,7.44
2019-02-23T18:15:49.836Z,7.36
2019-02-23T18:20:48.360Z,7.14
2019-02-23T18:25:46.051Z,7.05
2019-02-23T18:30:42.053Z,6.87
2019-02-23T18:35:39.053Z,6.98
2019-02-23T18:40:35.081Z,6.83
2019-02-23T18:45:35.872Z,6.77
2019-02-23T18:50:31.895Z,6.75
2019-02-23T18:55:27.809Z,6.60
2019-02-23T19:00:43.611Z,6.61
2019-02-23T19:05:49.694Z,6.59
2019-02-23T19:10:46.495Z,6.62
2019-02-23T19:15:46.850Z,6.52
2019-02-23T19:20:42.847Z,6.42
2019-02-23T19:25:38.750Z,6.33
2019-02-23T19:30:34.741Z,6.20
2019-02-23T19:35:30.643Z,5.96
2019-02-23T19:40:26.591Z,5.87
2019-02-23T19:45:24.353Z,5.55
2019-02-23T19:50:24.085Z,5.48
2019-02-23T19:55:20.060Z,5.53
2019-02-23T20:00:15.963Z,5.30
2019-02-23T20:05:11.915Z,5.13
2019-02-23T20:10:09.307Z,4.94
2019-02-23T20:15:13.522Z,4.81
2019-02-23T20:20:09.515Z,4.78
2019-02-23T20:25:07.024Z,4.82
2019-02-23T20:30:06.223Z,4.80
2019-02-23T20:35:02.325Z,4.67
2019-02-23T20:39:58.225Z,4.87
2019-02-23T20:44:54.224Z,4.62
2019-02-23T20:49:50.414Z,4.48
2019-02-23T20:54:47.213Z,4.46
2019-02-23T20:59:43.202Z,4.50
2019-02-23T21:04:39.108Z,4.35
2019-02-23T21:09:35.011Z,4.34
2019-02-23T21:14:30.909Z,4.70
2019-02-23T21:19:26.809Z,4.36
2019-02-23T21:24:22.708Z,4.32
2019-02-23T21:29:18.743Z,4.48
2019-02-23T21:34:14.650Z,4.39
2019-02-23T21:39:10.545Z,4.29
2019-02-23T21:44:07.287Z,4.62
2019-02-23T21:49:03.183Z,4.73
2019-02-23T21:53:59.157Z,4.74
2019-02-23T21:58:55.043Z,4.66
2019-02-23T22:03:50.944Z,4.97
2019-02-23T22:08:46.836Z,5.04
2019-02-23T22:13:42.809Z,5.04
2019-02-23T22:18:38.702Z,5.37
2019-02-23T22:23:34.613Z,5.40
2019-02-23T22:28:30.549Z,5.59
2019-02-23T22:33:26.445Z,5.74
2019-02-23T22:38:22.347Z,5.79
2019-02-23T22:43:18.242Z,5.80
2019-02-23T22:48:14.166Z,5.77
2019-02-23T22:53:10.069Z,5.75
2019-02-23T22:58:05.964Z,5.66
2019-02-23T23:03:01.876Z,5.75
2019-02-23T23:07:57.777Z,5.60
2019-02-23T23:12:53.669Z,5.55
2019-02-23T23:17:49.585Z,5.41
2019-02-23T23:22:45.478Z,5.45
2019-02-23T23:27:49.099Z,5.33
2019-02-23T23:32:39.297Z,5.19
2019-02-23T23:37:35.191Z,5.03
2019-02-23T23:42:31.097Z,4.82
2019-02-23T23:47:26.990Z,4.99
2019-02-23T23:52:22.891Z,5.11
2019-02-23T23:57:18.785Z,5.12
